Time;durP1;ratioP1;P1;durP2;ratioP2;P2;SDS_P1;SDS_P2;PMS_P1;PMS_P2;Temp;Humidity;BMP_temperature;BMP_pressure;BME280_temperature;BME280_humidity;BME280_pressure;Samples;Min_cycle;Max_cycle;Signal;HPM_P1;HPM_P2
2023/10/14 00:01:41;;;;;;;15.60;4.30;;;;;;;;;;5968283;29;20567;-95
2023/10/14 00:04:52;;;;;;;4.03;3.83;;;;;;;;;;5968908;29;20043;-96
2023/10/14 00:08:07;;;;;;;7.28;5.00;;;;;;;;;;5976631;29;20419;-94
2023/10/14 00:11:09;;;;;;;3.97;3.88;;;;;;;;;;5961137;29;20639;-96
2023/10/14 00:14:18;;;;;;;4.45;4.07;;;;;;;;;;5974109;29;20050;-95
2023/10/14 00:17:20;;;;;;;4.72;4.43;;;;;;;;;;5973536;29;20058;-95
2023/10/14 00:20:25;;;;;;;4.20;3.92;;;;;;;;;;5989901;29;20047;-94
2023/10/14 00:23:27;;;;;;;6.25;4.28;;;;;;;;;;5960897;29;20050;-94
2023/10/14 00:26:30;;;;;;;3.47;3.38;;;;;;;;;;5954004;29;20042;-95
2023/10/14 00:29:33;;;;;;;3.78;3.67;;;;;;;;;;5959267;29;20055;-95
2023/10/14 00:32:35;;;;;;;4.07;3.85;;;;;;;;;;5958642;29;20058;-93
2023/10/14 00:35:43;;;;;;;8.88;5.55;;;;;;;;;;5957474;29;20043;-94
2023/10/14 00:38:45;;;;;;;3.38;3.28;;;;;;;;;;5960071;29;20050;-95
2023/10/14 00:41:50;;;;;;;4.50;4.30;;;;;;;;;;5962603;29;20071;-94
2023/10/14 00:44:52;;;;;;;5.03;4.72;;;;;;;;;;5958084;29;20047;-93
2023/10/14 00:47:54;;;;;;;4.18;3.88;;;;;;;;;;5958193;29;20046;-94
2023/10/14 00:50:59;;;;;;;3.17;3.08;;;;;;;;;;5983971;29;20051;-94
2023/10/14 00:54:02;;;;;;;4.20;4.00;;;;;;;;;;5951664;29;20474;-95
2023/10/14 00:57:37;;;;;;;7.63;4.70;;;;;;;;;;5973371;29;20061;-92
2023/10/14 01:00:56;;;;;;;4.15;3.95;;;;;;;;;;5959045;29;20125;-94
2023/10/14 01:07:21;;;;;;;3.92;3.72;;;;;;;;;;5955692;29;20061;-91
2023/10/14 01:10:25;;;;;;;4.05;3.85;;;;;;;;;;5941777;29;20043;-91
2023/10/14 01:13:27;;;;;;;7.03;4.72;;;;;;;;;;5961652;29;20058;-91
2023/10/14 01:16:37;;;;;;;3.92;3.83;;;;;;;;;;5971486;29;20058;-91
2023/10/14 01:19:39;;;;;;;5.25;4.45;;;;;;;;;;5952004;29;20516;-90
2023/10/14 01:22:41;;;;;;;4.07;3.83;;;;;;;;;;5976013;29;20058;-93
2023/10/14 01:25:52;;;;;;;3.85;3.75;;;;;;;;;;5964977;29;20062;-92
2023/10/14 01:28:59;;;;;;;3.83;3.63;;;;;;;;;;5957822;29;20066;-90
2023/10/14 01:32:23;;;;;;;5.22;4.93;;;;;;;;;;5956832;29;20131;-93
2023/10/14 01:35:31;;;;;;;4.80;4.50;;;;;;;;;;5956892;29;20057;-91
2023/10/14 01:38:33;;;;;;;5.70;5.22;;;;;;;;;;5955270;29;20115;-91
2023/10/14 01:41:35;;;;;;;5.70;5.32;;;;;;;;;;5979240;29;20058;-95
2023/10/14 01:44:37;;;;;;;12.13;4.95;;;;;;;;;;5981487;29;20111;-92
2023/10/14 01:47:48;;;;;;;4.18;3.88;;;;;;;;;;5958539;29;20192;-96
2023/10/14 01:50:58;;;;;;;3.75;3.58;;;;;;;;;;5983967;29;20039;-96
2023/10/14 01:54:00;;;;;;;3.22;3.13;;;;;;;;;;5975414;29;20063;-94
2023/10/14 01:57:05;;;;;;;7.50;3.80;;;;;;;;;;5961480;29;20558;-93
2023/10/14 02:00:23;;;;;;;37.33;36.03;;;;;;;;;;5957464;29;20057;-94
2023/10/14 02:03:31;;;;;;;6.05;5.85;;;;;;;;;;5958847;29;20645;-88
2023/10/14 02:06:33;;;;;;;21.13;20.15;;;;;;;;;;5938601;29;20067;-94
2023/10/14 02:09:36;;;;;;;3.88;3.78;;;;;;;;;;5969425;29;20066;-95
2023/10/14 02:12:37;;;;;;;10.43;9.85;;;;;;;;;;5958258;29;20519;-93
2023/10/14 02:15:39;;;;;;;3.88;3.78;;;;;;;;;;5988195;29;20495;-91
2023/10/14 02:18:42;;;;;;;4.57;4.47;;;;;;;;;;5961624;29;20059;-89
2023/10/14 02:21:43;;;;;;;3.45;3.30;;;;;;;;;;5957840;29;20082;-90
2023/10/14 02:24:45;;;;;;;2.50;2.42;;;;;;;;;;5951375;29;20051;-94
2023/10/14 02:27:47;;;;;;;3.05;2.95;;;;;;;;;;5955782;29;20054;-90
2023/10/14 02:30:52;;;;;;;3.42;3.33;;;;;;;;;;5961452;29;20153;-91
2023/10/14 02:33:54;;;;;;;2.55;2.55;;;;;;;;;;5962541;29;20920;-94
2023/10/14 02:37:01;;;;;;;2.90;2.80;;;;;;;;;;5963304;29;20054;-93
2023/10/14 02:40:08;;;;;;;2.80;2.80;;;;;;;;;;5961611;29;20054;-95
2023/10/14 02:43:16;;;;;;;3.45;3.35;;;;;;;;;;5950119;29;20127;-92
2023/10/14 02:46:25;;;;;;;2.53;2.53;;;;;;;;;;5956406;29;20407;-95
2023/10/14 02:49:27;;;;;;;5.75;3.33;;;;;;;;;;5978536;29;20054;-94
2023/10/14 02:52:29;;;;;;;2.67;2.67;;;;;;;;;;5985789;29;20172;-96
2023/10/14 02:55:53;;;;;;;2.70;2.70;;;;;;;;;;5957138;29;20051;-91
2023/10/14 02:58:59;;;;;;;2.72;2.65;;;;;;;;;;5961288;29;20161;-91
2023/10/14 03:08:57;;;;;;;2.72;2.72;;;;;;;;;;5943399;29;20095;-93
2023/10/14 03:12:01;;;;;;;2.92;2.83;;;;;;;;;;5936773;29;20055;-92
2023/10/14 03:15:04;;;;;;;3.20;3.10;;;;;;;;;;5952513;29;20054;-94
2023/10/14 03:18:06;;;;;;;2.40;2.40;;;;;;;;;;5957797;29;20047;-93
2023/10/14 03:21:23;;;;;;;2.25;2.25;;;;;;;;;;5956211;29;20058;-93
2023/10/14 03:24:26;;;;;;;2.60;2.60;;;;;;;;;;5958771;29;20057;-94
2023/10/14 03:27:32;;;;;;;2.63;2.63;;;;;;;;;;5959224;29;20422;-92
2023/10/14 03:30:37;;;;;;;2.80;2.70;;;;;;;;;;5962074;29;20136;-93
2023/10/14 03:33:47;;;;;;;2.33;2.33;;;;;;;;;;5957833;29;20086;-91
2023/10/14 03:36:50;;;;;;;;;;;;;;;;;;5958722;29;20062;-91
2023/10/14 03:43:48;;;;;;;2.88;2.78;;;;;;;;;;5866042;30;20052;-92
2023/10/14 03:47:00;;;;;;;2.60;2.60;;;;;;;;;;5854648;30;20603;-92
2023/10/14 03:50:06;;;;;;;2.50;2.50;;;;;;;;;;5861404;30;20525;-90
2023/10/14 03:53:09;;;;;;;2.10;2.10;;;;;;;;;;5868907;30;20060;-92
2023/10/14 03:56:11;;;;;;;2.65;2.65;;;;;;;;;;5961875;29;20499;-92
2023/10/14 03:59:21;;;;;;;2.88;2.78;;;;;;;;;;5959824;29;20053;-93
2023/10/14 04:02:25;;;;;;;2.38;2.38;;;;;;;;;;5960002;29;20051;-93
2023/10/14 04:05:27;;;;;;;2.50;2.50;;;;;;;;;;5960110;29;20050;-92
2023/10/14 04:08:39;;;;;;;2.70;2.70;;;;;;;;;;5956983;29;20047;-93
2023/10/14 04:11:41;;;;;;;2.28;2.25;;;;;;;;;;5961171;29;20087;-93
2023/10/14 04:14:44;;;;;;;2.70;2.60;;;;;;;;;;5960582;29;20050;-95
2023/10/14 04:17:52;;;;;;;2.58;2.58;;;;;;;;;;5962445;29;20137;-94
2023/10/14 04:27:30;;;;;;;3.13;2.97;;;;;;;;;;5959826;29;20057;-95
2023/10/14 04:30:38;;;;;;;2.80;2.70;;;;;;;;;;5959966;29;20039;-90
2023/10/14 04:33:52;;;;;;;4.78;3.47;;;;;;;;;;5960377;29;20055;-92
2023/10/14 04:36:54;;;;;;;2.78;2.67;;;;;;;;;;5971500;29;20518;-91
2023/10/14 04:39:59;;;;;;;2.67;2.58;;;;;;;;;;5989529;29;20542;-91
2023/10/14 04:43:49;;;;;;;2.63;2.53;;;;;;;;;;5953291;29;20050;-92
2023/10/14 04:46:54;;;;;;;2.67;2.67;;;;;;;;;;5956646;29;20043;-93
2023/10/14 04:49:57;;;;;;;2.20;2.20;;;;;;;;;;5960213;29;20050;-92
2023/10/14 04:52:59;;;;;;;2.55;2.47;;;;;;;;;;5954490;29;20058;-94
2023/10/14 04:56:08;;;;;;;4.00;3.10;;;;;;;;;;5989921;29;20161;-94
2023/10/14 04:59:11;;;;;;;2.72;2.63;;;;;;;;;;5953817;29;20051;-93
2023/10/14 05:02:20;;;;;;;3.90;3.20;;;;;;;;;;5973650;29;20051;-94
2023/10/14 05:05:22;;;;;;;3.15;3.05;;;;;;;;;;5970181;29;20498;-94
2023/10/14 05:08:26;;;;;;;2.40;2.40;;;;;;;;;;5959285;29;20066;-94
2023/10/14 05:11:35;;;;;;;3.47;3.28;;;;;;;;;;5959056;29;20429;-94
2023/10/14 05:14:37;;;;;;;3.60;2.47;;;;;;;;;;5959606;29;20133;-95
2023/10/14 05:17:40;;;;;;;2.42;2.42;;;;;;;;;;5973538;29;20051;-95
2023/10/14 05:23:56;;;;;;;3.00;2.90;;;;;;;;;;5959654;29;20506;-95
2023/10/14 05:27:01;;;;;;;2.10;2.10;;;;;;;;;;5959358;29;20050;-94
2023/10/14 05:30:06;;;;;;;2.90;2.80;;;;;;;;;;5969101;29;20106;-95
2023/10/14 05:33:08;;;;;;;3.13;3.03;;;;;;;;;;5959221;29;20047;-95
2023/10/14 05:36:11;;;;;;;2.97;2.88;;;;;;;;;;5953606;29;20518;-96
2023/10/14 05:39:13;;;;;;;2.50;2.50;;;;;;;;;;5959612;29;20051;-94
2023/10/14 05:42:16;;;;;;;2.40;2.40;;;;;;;;;;5949721;29;20069;-93
2023/10/14 05:45:18;;;;;;;2.90;2.80;;;;;;;;;;5958695;29;20047;-93
2023/10/14 05:48:30;;;;;;;3.60;3.50;;;;;;;;;;5970639;29;20047;-93
2023/10/14 05:51:32;;;;;;;3.17;3.05;;;;;;;;;;5958983;29;20421;-93
2023/10/14 05:54:35;;;;;;;2.78;2.67;;;;;;;;;;5958014;29;20061;-93
2023/10/14 05:57:39;;;;;;;2.22;2.22;;;;;;;;;;5959123;29;20053;-96
2023/10/14 06:00:41;;;;;;;2.85;2.75;;;;;;;;;;5957545;29;20232;-92
2023/10/14 06:03:44;;;;;;;2.30;2.30;;;;;;;;;;5957889;29;20303;-93
2023/10/14 06:06:46;;;;;;;2.83;2.75;;;;;;;;;;5957741;29;20039;-92
2023/10/14 06:09:48;;;;;;;2.60;2.60;;;;;;;;;;5951379;29;20053;-93
2023/10/14 06:12:50;;;;;;;2.95;2.85;;;;;;;;;;5957271;29;20047;-91
2023/10/14 06:15:52;;;;;;;2.85;2.75;;;;;;;;;;5956653;29;20047;-92
2023/10/14 06:18:54;;;;;;;2.75;2.65;;;;;;;;;;5955568;29;20057;-94
2023/10/14 06:21:56;;;;;;;2.75;2.65;;;;;;;;;;5957573;29;20046;-92
2023/10/14 06:24:58;;;;;;;3.50;3.30;;;;;;;;;;5957138;29;20042;-91
2023/10/14 06:28:03;;;;;;;2.78;2.67;;;;;;;;;;5972220;29;20525;-92
2023/10/14 06:31:05;;;;;;;3.20;3.00;;;;;;;;;;5956825;29;20077;-93
2023/10/14 06:34:13;;;;;;;6.72;3.20;;;;;;;;;;5951104;29;20047;-93
2023/10/14 06:37:16;;;;;;;3.20;3.10;;;;;;;;;;5971920;29;20055;-92
2023/10/14 06:40:18;;;;;;;3.78;3.67;;;;;;;;;;5956739;29;20054;-95
2023/10/14 06:43:28;;;;;;;4.50;3.55;;;;;;;;;;5956947;29;20046;-92
2023/10/14 06:46:30;;;;;;;2.53;2.53;;;;;;;;;;5952763;29;20047;-91
2023/10/14 06:49:36;;;;;;;3.15;2.88;;;;;;;;;;5958275;29;20118;-92
2023/10/14 06:52:40;;;;;;;2.33;2.33;;;;;;;;;;5970950;29;20180;-92
2023/10/14 06:55:42;;;;;;;3.15;3.05;;;;;;;;;;5953957;29;20051;-93
2023/10/14 06:58:44;;;;;;;4.57;3.03;;;;;;;;;;5958661;29;20059;-92
2023/10/14 07:01:46;;;;;;;3.75;3.35;;;;;;;;;;5952553;29;20066;-93
2023/10/14 07:04:50;;;;;;;3.08;2.97;;;;;;;;;;5958398;29;20093;-92
2023/10/14 07:07:52;;;;;;;6.57;3.35;;;;;;;;;;5955602;29;20077;-92
2023/10/14 07:10:55;;;;;;;2.95;2.83;;;;;;;;;;5958266;29;20050;-92
2023/10/14 07:13:57;;;;;;;2.97;2.88;;;;;;;;;;5951326;29;20047;-90
2023/10/14 07:16:59;;;;;;;5.45;2.83;;;;;;;;;;5961819;29;20458;-92
2023/10/14 07:20:01;;;;;;;2.63;2.58;;;;;;;;;;5962689;29;20521;-90
2023/10/14 07:23:03;;;;;;;4.30;3.92;;;;;;;;;;5954619;29;20704;-91
2023/10/14 07:26:06;;;;;;;2.45;2.35;;;;;;;;;;5960994;29;20052;-90
2023/10/14 07:29:08;;;;;;;2.70;2.60;;;;;;;;;;5956303;29;20047;-90
2023/10/14 07:32:10;;;;;;;2.30;2.30;;;;;;;;;;5961339;29;20506;-90
2023/10/14 07:35:13;;;;;;;2.50;2.40;;;;;;;;;;5961656;29;20046;-90
2023/10/14 07:38:15;;;;;;;4.03;3.00;;;;;;;;;;5962158;29;20078;-89
2023/10/14 07:41:19;;;;;;;4.00;2.70;;;;;;;;;;5960559;29;20082;-91
2023/10/14 07:44:22;;;;;;;3.05;2.95;;;;;;;;;;5960029;29;20046;-91
2023/10/14 07:47:29;;;;;;;3.42;3.33;;;;;;;;;;5959098;29;20059;-89
2023/10/14 07:50:31;;;;;;;2.38;2.38;;;;;;;;;;5956987;29;20051;-91
2023/10/14 07:53:33;;;;;;;3.47;3.28;;;;;;;;;;5961499;29;20066;-89
2023/10/14 07:56:39;;;;;;;2.60;2.60;;;;;;;;;;5957550;29;20054;-88
2023/10/14 07:59:43;;;;;;;4.53;3.15;;;;;;;;;;5960905;29;20054;-90
2023/10/14 08:02:45;;;;;;;2.67;2.65;;;;;;;;;;5960457;29;20446;-90
2023/10/14 08:05:51;;;;;;;3.08;2.97;;;;;;;;;;5954472;29;20513;-90
2023/10/14 08:08:53;;;;;;;3.90;2.67;;;;;;;;;;5960656;29;20568;-89
2023/10/14 08:11:55;;;;;;;2.95;2.85;;;;;;;;;;5957719;29;20059;-89
2023/10/14 08:14:59;;;;;;;2.80;2.70;;;;;;;;;;5959718;29;20055;-88
2023/10/14 08:18:04;;;;;;;3.15;3.05;;;;;;;;;;5960855;29;20115;-89
2023/10/14 08:21:06;;;;;;;2.85;2.75;;;;;;;;;;5959981;29;20050;-90
2023/10/14 08:24:08;;;;;;;3.42;2.80;;;;;;;;;;5960750;29;20051;-88
2023/10/14 08:27:12;;;;;;;3.00;2.90;;;;;;;;;;5960198;29;20050;-88
2023/10/14 08:30:16;;;;;;;8.30;2.80;;;;;;;;;;5960185;29;20046;-88
2023/10/14 08:33:19;;;;;;;2.53;2.53;;;;;;;;;;5958211;29;20050;-88
2023/10/14 08:36:20;;;;;;;3.05;2.85;;;;;;;;;;5960104;29;20051;-88
2023/10/14 08:39:23;;;;;;;3.60;2.75;;;;;;;;;;5960225;29;20053;-87
2023/10/14 08:42:27;;;;;;;7.15;3.95;;;;;;;;;;5960071;29;20051;-88
2023/10/14 08:45:29;;;;;;;3.15;2.95;;;;;;;;;;5961555;29;20046;-88
2023/10/14 08:48:31;;;;;;;2.28;2.28;;;;;;;;;;5973872;29;20053;-88
2023/10/14 08:51:33;;;;;;;2.75;2.65;;;;;;;;;;5960811;29;20042;-88
2023/10/14 08:54:54;;;;;;;3.10;3.00;;;;;;;;;;5957382;29;20064;-88
2023/10/14 08:58:05;;;;;;;2.22;2.22;;;;;;;;;;5959026;29;20062;-88
2023/10/14 09:01:11;;;;;;;2.50;2.30;;;;;;;;;;5969205;29;20506;-87
2023/10/14 09:04:15;;;;;;;12.38;3.13;;;;;;;;;;5953127;29;20079;-87
2023/10/14 09:07:20;;;;;;;3.03;2.90;;;;;;;;;;5959565;29;20692;-88
2023/10/14 09:10:24;;;;;;;2.95;2.85;;;;;;;;;;5957750;29;20043;-88
2023/10/14 09:13:26;;;;;;;3.75;3.25;;;;;;;;;;5972456;29;20046;-89
2023/10/14 09:16:32;;;;;;;3.25;3.05;;;;;;;;;;5988557;29;20039;-90
2023/10/14 09:19:44;;;;;;;3.72;3.10;;;;;;;;;;5974014;29;20067;-90
2023/10/14 09:22:47;;;;;;;4.70;3.22;;;;;;;;;;5959751;29;20066;-88
2023/10/14 09:25:56;;;;;;;3.45;3.20;;;;;;;;;;5959194;29;20043;-89
2023/10/14 09:28:59;;;;;;;2.53;2.42;;;;;;;;;;5972031;29;20039;-88
2023/10/14 09:32:00;;;;;;;3.72;3.45;;;;;;;;;;5959496;29;20463;-89
2023/10/14 09:35:04;;;;;;;2.72;2.63;;;;;;;;;;5957367;29;20103;-88
2023/10/14 09:38:08;;;;;;;6.18;3.45;;;;;;;;;;5956705;29;20040;-90
2023/10/14 09:41:10;;;;;;;2.60;2.50;;;;;;;;;;5959947;29;20051;-89
2023/10/14 09:44:12;;;;;;;3.80;3.60;;;;;;;;;;5953524;29;20055;-89
2023/10/14 09:47:19;;;;;;;3.00;2.90;;;;;;;;;;5958376;29;20051;-88
2023/10/14 09:50:23;;;;;;;11.02;3.70;;;;;;;;;;5958427;29;20047;-88
2023/10/14 09:53:26;;;;;;;15.30;3.10;;;;;;;;;;5958256;29;20172;-90
2023/10/14 09:56:30;;;;;;;2.78;2.70;;;;;;;;;;5958573;29;20490;-88
2023/10/14 09:59:45;;;;;;;2.92;2.72;;;;;;;;;;5953867;29;20066;-87
2023/10/14 10:02:49;;;;;;;5.00;3.15;;;;;;;;;;5982624;29;20153;-88
2023/10/14 10:06:10;;;;;;;2.95;2.85;;;;;;;;;;5951353;29;20046;-88
2023/10/14 10:09:30;;;;;;;4.00;3.72;;;;;;;;;;5956083;29;20050;-88
2023/10/14 10:12:33;;;;;;;2.30;2.30;;;;;;;;;;5957369;29;20078;-88
2023/10/14 10:15:35;;;;;;;2.67;2.58;;;;;;;;;;5955156;29;20506;-90
2023/10/14 10:18:59;;;;;;;2.55;2.45;;;;;;;;;;5953404;29;20059;-89
2023/10/14 10:22:14;;;;;;;2.97;2.83;;;;;;;;;;5969032;29;20057;-90
2023/10/14 10:25:37;;;;;;;2.67;2.58;;;;;;;;;;5961349;29;20579;-89
2023/10/14 10:28:39;;;;;;;2.72;2.63;;;;;;;;;;5975040;29;20514;-89
2023/10/14 10:32:01;;;;;;;2.90;2.80;;;;;;;;;;5982446;29;20508;-88
2023/10/14 10:35:09;;;;;;;3.97;3.13;;;;;;;;;;5982326;29;20049;-89
2023/10/14 10:38:10;;;;;;;2.58;2.50;;;;;;;;;;5979333;29;20058;-89
2023/10/14 10:41:25;;;;;;;2.83;2.72;;;;;;;;;;5954488;29;20057;-88
2023/10/14 10:44:29;;;;;;;2.35;2.30;;;;;;;;;;5955835;29;20046;-91
2023/10/14 10:47:42;;;;;;;12.45;2.50;;;;;;;;;;5964918;29;20070;-91
2023/10/14 10:50:55;;;;;;;1.98;1.98;;;;;;;;;;5973167;29;20421;-88
2023/10/14 10:53:59;;;;;;;2.63;2.53;;;;;;;;;;5979577;29;20066;-89
2023/10/14 10:57:02;;;;;;;2.10;2.10;;;;;;;;;;5981302;29;20054;-89
2023/10/14 11:00:10;;;;;;;3.53;2.85;;;;;;;;;;5979700;29;20050;-87
2023/10/14 11:03:17;;;;;;;2.78;2.67;;;;;;;;;;5983557;29;20555;-87
2023/10/14 11:06:20;;;;;;;3.38;3.08;;;;;;;;;;5960418;29;20240;-87
2023/10/14 11:09:22;;;;;;;3.17;2.97;;;;;;;;;;5961242;29;20051;-88
2023/10/14 11:12:24;;;;;;;3.10;2.88;;;;;;;;;;5962341;29;20046;-88
2023/10/14 11:15:26;;;;;;;2.58;2.47;;;;;;;;;;5961136;29;20133;-87
2023/10/14 11:18:30;;;;;;;2.22;2.22;;;;;;;;;;5962302;29;20096;-87
2023/10/14 11:21:39;;;;;;;2.15;2.15;;;;;;;;;;5961614;29;20145;-86
2023/10/14 11:24:42;;;;;;;2.75;2.65;;;;;;;;;;5960651;29;20086;-87
2023/10/14 11:27:45;;;;;;;2.55;2.40;;;;;;;;;;5961277;29;20050;-86
2023/10/14 11:30:47;;;;;;;2.92;2.83;;;;;;;;;;5956503;29;20460;-88
2023/10/14 11:33:49;;;;;;;2.40;2.40;;;;;;;;;;5958662;29;20130;-87
2023/10/14 11:36:54;;;;;;;2.97;2.80;;;;;;;;;;5961190;29;20146;-87
2023/10/14 11:39:57;;;;;;;2.97;2.80;;;;;;;;;;5960115;29;20503;-87
2023/10/14 11:42:58;;;;;;;2.53;2.42;;;;;;;;;;5959126;29;20292;-87
2023/10/14 11:46:00;;;;;;;2.42;2.33;;;;;;;;;;5960503;29;20418;-87
2023/10/14 11:49:02;;;;;;;8.40;3.10;;;;;;;;;;5959269;29;20049;-87
2023/10/14 11:52:04;;;;;;;2.28;2.22;;;;;;;;;;5955202;29;20053;-87
2023/10/14 11:55:06;;;;;;;3.08;2.97;;;;;;;;;;5973400;29;20122;-88
2023/10/14 11:58:08;;;;;;;2.95;2.75;;;;;;;;;;5958569;29;20061;-87
2023/10/14 12:01:10;;;;;;;3.70;3.47;;;;;;;;;;5958472;29;20049;-88
2023/10/14 12:04:12;;;;;;;2.72;2.63;;;;;;;;;;5959172;29;20546;-87
2023/10/14 12:07:16;;;;;;;8.15;2.63;;;;;;;;;;5958529;29;20110;-90
2023/10/14 12:10:18;;;;;;;3.67;2.83;;;;;;;;;;5958016;29;20050;-88
2023/10/14 12:13:23;;;;;;;2.85;2.70;;;;;;;;;;5973928;29;20054;-87
2023/10/14 12:16:45;;;;;;;3.70;3.00;;;;;;;;;;5960893;29;20047;-90
2023/10/14 12:19:52;;;;;;;2.30;2.22;;;;;;;;;;5945249;29;20059;-89
2023/10/14 12:22:53;;;;;;;2.47;2.38;;;;;;;;;;5958616;29;20163;-87
2023/10/14 12:25:55;;;;;;;2.92;2.80;;;;;;;;;;5960306;29;20095;-87
2023/10/14 12:28:57;;;;;;;2.63;2.47;;;;;;;;;;5960587;29;20096;-87
2023/10/14 12:32:00;;;;;;;2.55;2.45;;;;;;;;;;5953286;29;20062;-87
2023/10/14 12:35:27;;;;;;;3.40;2.75;;;;;;;;;;5958631;29;20532;-87
2023/10/14 12:38:30;;;;;;;2.40;2.30;;;;;;;;;;5968991;29;20506;-87
2023/10/14 12:41:31;;;;;;;2.58;2.47;;;;;;;;;;5959697;29;20043;-88
2023/10/14 12:44:35;;;;;;;13.30;2.92;;;;;;;;;;5959952;29;20050;-89
2023/10/14 12:47:38;;;;;;;2.53;2.42;;;;;;;;;;5973309;29;20047;-86
2023/10/14 12:50:46;;;;;;;2.83;2.72;;;;;;;;;;5960079;29;20047;-87
2023/10/14 12:53:48;;;;;;;2.95;2.50;;;;;;;;;;5959498;29;20495;-87
2023/10/14 12:56:50;;;;;;;2.03;2.03;;;;;;;;;;5956994;29;20074;-87
2023/10/14 12:59:52;;;;;;;1.95;1.95;;;;;;;;;;5958329;29;20099;-87
2023/10/14 13:02:53;;;;;;;3.35;3.05;;;;;;;;;;5958487;29;20062;-87
2023/10/14 13:05:55;;;;;;;1.95;1.95;;;;;;;;;;5959410;29;20051;-88
2023/10/14 13:08:58;;;;;;;2.40;2.40;;;;;;;;;;5959748;29;20054;-87
2023/10/14 13:12:00;;;;;;;2.03;2.03;;;;;;;;;;5957590;29;20062;-86
2023/10/14 13:15:05;;;;;;;2.85;2.75;;;;;;;;;;5957674;29;20501;-86
2023/10/14 13:18:07;;;;;;;2.42;2.33;;;;;;;;;;5958332;29;20527;-87
2023/10/14 13:21:14;;;;;;;2.30;2.30;;;;;;;;;;5958332;29;20043;-88
2023/10/14 13:24:16;;;;;;;2.67;2.58;;;;;;;;;;5957179;29;20035;-87
2023/10/14 13:27:17;;;;;;;2.45;2.42;;;;;;;;;;5956150;29;20038;-87
2023/10/14 13:30:22;;;;;;;2.28;2.25;;;;;;;;;;5958350;29;20107;-86
2023/10/14 13:33:24;;;;;;;2.13;2.13;;;;;;;;;;5957959;29;20074;-86
2023/10/14 13:36:26;;;;;;;2.00;2.00;;;;;;;;;;5956401;29;20046;-88
2023/10/14 13:39:34;;;;;;;2.75;2.65;;;;;;;;;;5957815;29;20567;-86
2023/10/14 13:42:37;;;;;;;8.32;3.13;;;;;;;;;;5951067;29;20050;-86
2023/10/14 13:45:41;;;;;;;2.20;2.10;;;;;;;;;;5959084;29;20051;-88
2023/10/14 13:48:43;;;;;;;2.38;2.00;;;;;;;;;;5958427;29;20464;-88
2023/10/14 13:51:45;;;;;;;2.58;2.58;;;;;;;;;;5957664;29;20058;-86
2023/10/14 13:54:46;;;;;;;3.17;3.08;;;;;;;;;;5954368;29;20058;-91
2023/10/14 13:57:49;;;;;;;2.80;2.70;;;;;;;;;;5958599;29;20145;-90
2023/10/14 14:00:51;;;;;;;2.28;2.28;;;;;;;;;;5958471;29;20131;-88
2023/10/14 14:03:57;;;;;;;2.00;2.00;;;;;;;;;;5957114;29;20046;-90
2023/10/14 14:07:01;;;;;;;2.33;2.33;;;;;;;;;;5953759;29;20050;-93
2023/10/14 14:10:05;;;;;;;2.95;2.85;;;;;;;;;;5958588;29;20057;-90
2023/10/14 14:13:07;;;;;;;2.78;2.72;;;;;;;;;;5955874;29;20047;-90
2023/10/14 14:16:08;;;;;;;4.25;2.92;;;;;;;;;;5954722;29;20536;-90
2023/10/14 14:19:11;;;;;;;2.10;2.10;;;;;;;;;;5950996;29;20055;-89
2023/10/14 14:22:12;;;;;;;2.35;2.35;;;;;;;;;;5963541;29;20796;-92
2023/10/14 14:25:15;;;;;;;2.17;2.17;;;;;;;;;;5957939;29;20043;-92
2023/10/14 14:28:17;;;;;;;2.33;2.33;;;;;;;;;;5954170;29;20560;-90
2023/10/14 14:31:20;;;;;;;16.33;2.80;;;;;;;;;;5956939;29;20051;-90
2023/10/14 14:34:24;;;;;;;2.80;2.75;;;;;;;;;;5958121;29;20517;-90
2023/10/14 14:37:27;;;;;;;3.17;2.88;;;;;;;;;;5951900;29;20053;-90
2023/10/14 14:40:40;;;;;;;4.30;2.55;;;;;;;;;;5957837;29;20073;-89
2023/10/14 14:43:42;;;;;;;2.20;2.20;;;;;;;;;;5951526;29;20080;-89
2023/10/14 14:46:44;;;;;;;3.45;3.33;;;;;;;;;;5957320;29;20054;-91
2023/10/14 14:49:46;;;;;;;2.28;2.28;;;;;;;;;;5957081;29;20093;-88
2023/10/14 14:52:47;;;;;;;2.17;2.17;;;;;;;;;;5956357;29;20039;-88
2023/10/14 14:55:49;;;;;;;2.40;2.30;;;;;;;;;;5957771;29;20054;-88
2023/10/14 14:58:51;;;;;;;1.90;1.90;;;;;;;;;;5956852;29;20542;-87
2023/10/14 15:01:52;;;;;;;2.28;2.28;;;;;;;;;;5954360;29;20070;-88
2023/10/14 15:04:55;;;;;;;2.33;2.33;;;;;;;;;;5956105;29;20100;-88
2023/10/14 15:07:58;;;;;;;2.80;2.72;;;;;;;;;;5956684;29;20051;-87
2023/10/14 15:11:00;;;;;;;2.30;2.30;;;;;;;;;;5958193;29;20043;-87
2023/10/14 15:14:03;;;;;;;2.20;2.20;;;;;;;;;;5957037;29;20043;-88
2023/10/14 15:17:07;;;;;;;2.60;2.50;;;;;;;;;;5956935;29;20043;-87
2023/10/14 15:20:12;;;;;;;2.10;2.10;;;;;;;;;;5949403;29;20050;-86
2023/10/14 15:23:17;;;;;;;2.55;2.45;;;;;;;;;;5957423;29;20161;-86
2023/10/14 15:26:20;;;;;;;2.50;2.50;;;;;;;;;;5956333;29;20632;-86
2023/10/14 15:29:22;;;;;;;3.22;2.63;;;;;;;;;;5977233;29;20495;-87
2023/10/14 15:32:24;;;;;;;2.33;2.33;;;;;;;;;;5956865;29;20066;-86
2023/10/14 15:35:26;;;;;;;2.63;2.63;;;;;;;;;;5957511;29;20906;-85
2023/10/14 15:38:28;;;;;;;2.33;2.33;;;;;;;;;;5990240;29;20466;-86
2023/10/14 15:41:30;;;;;;;3.00;2.80;;;;;;;;;;5958158;29;20123;-87
2023/10/14 15:44:32;;;;;;;2.38;2.33;;;;;;;;;;5960979;29;20122;-85
2023/10/14 15:47:34;;;;;;;2.63;2.53;;;;;;;;;;5960596;29;20080;-86
2023/10/14 15:50:40;;;;;;;2.60;2.50;;;;;;;;;;5956871;29;20055;-87
2023/10/14 15:53:42;;;;;;;2.20;2.15;;;;;;;;;;5960067;29;20588;-85
2023/10/14 15:56:43;;;;;;;3.35;3.15;;;;;;;;;;5960532;29;20078;-87
2023/10/14 15:59:45;;;;;;;2.95;2.85;;;;;;;;;;5961130;29;20059;-86
2023/10/14 16:02:46;;;;;;;2.10;2.10;;;;;;;;;;5952234;29;20540;-88
2023/10/14 16:05:49;;;;;;;3.53;3.42;;;;;;;;;;5960411;29;20043;-94
2023/10/14 16:08:52;;;;;;;2.20;2.20;;;;;;;;;;5959624;29;20055;-87
2023/10/14 16:11:54;;;;;;;2.28;2.28;;;;;;;;;;5969584;29;20137;-90
2023/10/14 16:14:56;;;;;;;2.30;2.30;;;;;;;;;;5967558;29;20503;-90
2023/10/14 16:18:00;;;;;;;2.83;2.72;;;;;;;;;;5950276;29;20066;-95
2023/10/14 16:21:02;;;;;;;2.10;2.10;;;;;;;;;;5959428;29;20130;-92
2023/10/14 16:24:04;;;;;;;2.10;2.10;;;;;;;;;;5960815;29;20408;-88
2023/10/14 16:27:05;;;;;;;2.40;2.40;;;;;;;;;;5960427;29;20046;-88
2023/10/14 16:30:20;;;;;;;2.55;2.50;;;;;;;;;;5960907;29;20054;-89
2023/10/14 16:33:22;;;;;;;2.58;2.58;;;;;;;;;;5960482;29;20054;-92
2023/10/14 16:36:26;;;;;;;2.42;2.42;;;;;;;;;;5954622;29;20126;-90
2023/10/14 16:39:28;;;;;;;2.25;2.25;;;;;;;;;;5957241;29;20052;-90
2023/10/14 16:42:30;;;;;;;3.88;3.72;;;;;;;;;;5956767;29;20057;-90
2023/10/14 16:45:35;;;;;;;3.15;2.95;;;;;;;;;;5952556;29;20646;-89
2023/10/14 16:48:38;;;;;;;2.97;2.78;;;;;;;;;;5956153;29;20035;-90
2023/10/14 16:51:40;;;;;;;2.70;2.70;;;;;;;;;;5958508;29;20055;-90
2023/10/14 16:54:41;;;;;;;2.72;2.70;;;;;;;;;;5958089;29;20066;-91
2023/10/14 16:57:47;;;;;;;2.90;2.83;;;;;;;;;;5955580;29;20062;-89
2023/10/14 17:00:50;;;;;;;2.95;2.85;;;;;;;;;;5954817;29;20047;-90
2023/10/14 17:03:55;;;;;;;2.83;2.72;;;;;;;;;;5958433;29;20053;-90
2023/10/14 17:07:00;;;;;;;2.80;2.75;;;;;;;;;;5953050;29;20051;-90
2023/10/14 17:10:02;;;;;;;3.00;2.90;;;;;;;;;;5955110;29;20054;-89
2023/10/14 17:13:10;;;;;;;3.55;3.35;;;;;;;;;;5956789;29;20046;-88
2023/10/14 17:16:12;;;;;;;2.90;2.80;;;;;;;;;;5972835;29;20035;-89
2023/10/14 17:19:15;;;;;;;2.85;2.75;;;;;;;;;;5957041;29;20059;-88
2023/10/14 17:22:16;;;;;;;3.58;3.47;;;;;;;;;;5966412;29;20419;-88
2023/10/14 17:25:19;;;;;;;3.08;2.97;;;;;;;;;;5951778;29;20130;-87
2023/10/14 17:28:22;;;;;;;3.08;2.97;;;;;;;;;;5938569;29;20141;-87
2023/10/14 17:31:25;;;;;;;3.25;3.15;;;;;;;;;;5954183;29;20418;-88
2023/10/14 17:34:27;;;;;;;3.47;3.38;;;;;;;;;;5958933;29;20043;-88
2023/10/14 17:37:31;;;;;;;3.13;3.03;;;;;;;;;;5960230;29;20053;-87
2023/10/14 17:40:39;;;;;;;3.25;3.15;;;;;;;;;;5959809;29;20062;-87
2023/10/14 17:43:41;;;;;;;3.78;3.33;;;;;;;;;;5958920;29;20486;-87
2023/10/14 17:46:42;;;;;;;2.25;2.25;;;;;;;;;;5958126;29;20470;-89
2023/10/14 17:49:45;;;;;;;2.38;2.38;;;;;;;;;;5960586;29;20043;-87
2023/10/14 17:52:48;;;;;;;2.55;2.55;;;;;;;;;;5958240;29;20900;-87
2023/10/14 17:55:55;;;;;;;2.92;2.83;;;;;;;;;;5958586;29;20110;-85
2023/10/14 17:58:57;;;;;;;2.88;2.78;;;;;;;;;;5958479;29;20175;-87
2023/10/14 18:01:58;;;;;;;3.03;2.83;;;;;;;;;;5958444;29;20043;-86
2023/10/14 18:05:07;;;;;;;3.05;2.95;;;;;;;;;;5956301;29;20046;-85
2023/10/14 18:08:09;;;;;;;6.28;3.70;;;;;;;;;;5958421;29;20430;-85
2023/10/14 18:11:12;;;;;;;3.20;3.10;;;;;;;;;;5958481;29;20054;-86
2023/10/14 18:14:15;;;;;;;2.75;2.65;;;;;;;;;;5965060;29;20149;-86
2023/10/14 18:17:17;;;;;;;3.00;2.80;;;;;;;;;;5956560;29;20134;-85
2023/10/14 18:20:25;;;;;;;3.10;3.00;;;;;;;;;;5958392;29;20076;-85
2023/10/14 18:23:27;;;;;;;2.63;2.58;;;;;;;;;;5958450;29;20046;-85
2023/10/14 18:26:29;;;;;;;3.10;3.00;;;;;;;;;;5958000;29;20054;-85
2023/10/14 18:29:32;;;;;;;2.90;2.80;;;;;;;;;;5957327;29;20415;-86
2023/10/14 18:32:33;;;;;;;2.30;2.30;;;;;;;;;;5985703;29;20085;-86
2023/10/14 18:35:38;;;;;;;3.55;3.45;;;;;;;;;;5977416;29;20063;-86
2023/10/14 18:38:40;;;;;;;3.05;2.95;;;;;;;;;;5955645;29;20514;-86
2023/10/14 18:41:43;;;;;;;2.95;2.85;;;;;;;;;;5956153;29;20531;-86
2023/10/14 18:44:45;;;;;;;4.30;4.00;;;;;;;;;;5954918;29;20047;-86
2023/10/14 18:47:53;;;;;;;5.45;3.05;;;;;;;;;;5956699;29;20046;-86
2023/10/14 18:50:55;;;;;;;2.78;2.67;;;;;;;;;;5956627;29;20045;-86